createdAt,value
2023-01-09T00:02:27.539Z,4.50
2023-01-09T00:07:31.076Z,3.35
2023-01-09T00:12:36.207Z,2.60
2023-01-09T00:17:40.115Z,3.50
2023-01-09T00:22:43.940Z,3.05
2023-01-09T00:27:48.823Z,2.45
2023-01-09T00:32:52.469Z,4.90
2023-01-09T00:37:56.236Z,1.80
2023-01-09T00:43:01.929Z,2.53
2023-01-09T00:48:11.144Z,2.88
2023-01-09T00:53:18.414Z,3.88
2023-01-09T00:58:23.312Z,1.02
2023-01-09T01:03:26.870Z,3.13
2023-01-09T01:08:30.376Z,2.80
2023-01-09T01:13:35.393Z,2.03
2023-01-09T01:18:39.276Z,1.95
2023-01-09T01:23:42.984Z,2.58
2023-01-09T01:28:47.783Z,3.65
2023-01-09T01:33:51.285Z,3.10
2023-01-09T01:38:54.841Z,2.88
2023-01-09T01:44:01.758Z,6.05
2023-01-09T01:49:09.236Z,5.10
2023-01-09T01:54:19.686Z,4.68
2023-01-09T01:59:27.442Z,4.27
2023-01-09T02:04:34.161Z,4.13
2023-01-09T02:09:39.794Z,3.75
2023-01-09T02:14:46.631Z,5.15
2023-01-09T02:20:33.440Z,4.57
2023-01-09T02:26:01.227Z,3.83
2023-01-09T02:31:12.033Z,2.88
2023-01-09T02:36:25.235Z,5.72
2023-01-09T02:41:37.460Z,4.72
2023-01-09T02:46:42.300Z,6.97
2023-01-09T02:51:53.058Z,5.50
2023-01-09T02:57:16.275Z,3.13
2023-01-09T03:02:36.423Z,5.88
2023-01-09T03:07:48.246Z,3.83
2023-01-09T03:12:54.545Z,5.78
2023-01-09T03:18:00.881Z,5.57
2023-01-09T03:23:06.893Z,7.15
2023-01-09T03:28:19.492Z,8.23
2023-01-09T03:33:24.492Z,7.55
2023-01-09T03:38:27.968Z,13.45
2023-01-09T03:43:31.479Z,5.40
2023-01-09T03:48:36.594Z,6.32
2023-01-09T03:53:40.232Z,6.30
2023-01-09T03:58:43.725Z,6.50
2023-01-09T04:03:48.605Z,6.90
2023-01-09T04:08:52.133Z,8.18
2023-01-09T04:13:55.638Z,3.50
2023-01-09T04:19:01.831Z,7.57
2023-01-09T04:24:06.084Z,4.88
2023-01-09T04:29:09.585Z,5.90
2023-01-09T04:34:14.447Z,7.50
2023-01-09T04:39:18.000Z,5.47
2023-01-09T04:44:23.095Z,9.88
2023-01-09T04:49:28.067Z,10.05
2023-01-09T04:54:31.612Z,7.60
2023-01-09T04:59:35.158Z,9.88
2023-01-09T05:04:40.163Z,10.77
2023-01-09T05:09:44.684Z,7.40
2023-01-09T05:14:48.325Z,12.18
2023-01-09T05:19:53.215Z,7.70
2023-01-09T05:24:57.922Z,8.65
2023-01-09T05:30:02.575Z,7.35
2023-01-09T05:35:08.622Z,8.23
2023-01-09T05:40:13.189Z,8.48
2023-01-09T05:45:16.693Z,7.47
2023-01-09T05:50:21.591Z,9.30
2023-01-09T05:55:25.081Z,6.05
2023-01-09T06:00:28.714Z,8.02
2023-01-09T06:05:34.009Z,8.82
2023-01-09T06:10:37.607Z,10.02
2023-01-09T06:15:41.196Z,7.47
2023-01-09T06:20:46.918Z,5.40
2023-01-09T06:25:50.416Z,10.40
2023-01-09T06:30:54.176Z,6.75
2023-01-09T06:35:59.761Z,15.88
2023-01-09T06:41:03.342Z,8.32
2023-01-09T06:46:07.341Z,11.85
2023-01-09T06:51:12.268Z,11.55
2023-01-09T06:56:15.776Z,7.70
2023-01-09T07:01:19.368Z,12.52
2023-01-09T07:06:24.571Z,14.13
2023-01-09T07:11:28.065Z,8.20
2023-01-09T07:16:31.542Z,14.15
2023-01-09T07:21:36.526Z,7.15
2023-01-09T07:26:41.041Z,7.78
2023-01-09T07:31:45.719Z,9.18
2023-01-09T07:36:50.878Z,10.05
2023-01-09T07:41:54.567Z,6.38
2023-01-09T07:46:58.402Z,8.25
2023-01-09T07:52:03.558Z,3.65
2023-01-09T07:57:07.375Z,13.68
2023-01-09T08:02:11.133Z,13.13
2023-01-09T08:07:16.245Z,9.95
2023-01-09T08:12:19.837Z,13.40
2023-01-09T08:17:25.188Z,12.23
2023-01-09T08:22:31.609Z,14.02
2023-01-09T08:27:35.533Z,10.80
2023-01-09T08:32:40.164Z,13.70
2023-01-09T08:37:46.333Z,9.00
2023-01-09T08:43:08.656Z,9.63
2023-01-09T08:48:12.850Z,8.15
2023-01-09T08:53:17.881Z,7.32
2023-01-09T08:58:21.819Z,8.18
2023-01-09T09:03:25.647Z,6.47
2023-01-09T09:08:30.906Z,8.40
2023-01-09T09:13:34.746Z,10.63
2023-01-09T09:18:38.515Z,10.90
2023-01-09T09:23:44.527Z,8.75
2023-01-09T09:28:48.216Z,17.00
2023-01-09T09:33:51.889Z,9.93
2023-01-09T09:38:57.564Z,7.82
2023-01-09T09:44:35.464Z,6.32
2023-01-09T09:49:50.289Z,12.27
2023-01-09T09:54:58.563Z,8.95
2023-01-09T10:00:03.894Z,7.05
2023-01-09T10:05:22.371Z,8.10
2023-01-09T10:10:34.351Z,8.57
2023-01-09T10:15:42.379Z,9.00
2023-01-09T10:20:52.993Z,11.23
2023-01-09T10:26:03.153Z,10.50
2023-01-09T10:31:16.580Z,12.35
2023-01-09T10:36:37.942Z,12.15
2023-01-09T10:41:52.102Z,9.40
2023-01-09T10:46:57.944Z,9.13
2023-01-09T10:52:15.443Z,11.88
2023-01-09T10:57:35.262Z,8.65
2023-01-09T11:02:38.899Z,10.80
2023-01-09T11:07:45.938Z,13.80
2023-01-09T11:12:51.208Z,9.43
2023-01-09T11:17:54.870Z,13.38
2023-01-09T11:22:59.996Z,8.52
2023-01-09T11:28:08.721Z,10.45
2023-01-09T11:33:20.118Z,10.00
2023-01-09T11:38:23.864Z,11.40
2023-01-09T11:43:37.651Z,12.50
2023-01-09T11:48:57.000Z,11.98
2023-01-09T11:54:14.535Z,9.30
2023-01-09T11:59:21.801Z,7.80
2023-01-09T12:04:29.855Z,9.70
2023-01-09T12:09:45.528Z,11.63
2023-01-09T12:15:04.609Z,11.80
2023-01-09T12:20:32.243Z,10.20
2023-01-09T12:25:45.918Z,9.63
2023-01-09T12:31:04.157Z,9.93
2023-01-09T12:36:15.653Z,12.93
2023-01-09T12:41:37.712Z,10.05
2023-01-09T12:46:51.507Z,15.50
2023-01-09T12:52:01.443Z,10.02
2023-01-09T12:57:12.927Z,10.88
2023-01-09T13:02:24.786Z,11.07
2023-01-09T13:07:34.311Z,18.20
2023-01-09T13:12:41.688Z,14.05
2023-01-09T13:17:52.791Z,9.90
2023-01-09T13:22:57.491Z,7.97
2023-01-09T13:28:07.022Z,9.95
2023-01-09T13:33:19.991Z,8.82
2023-01-09T13:38:26.095Z,8.07
2023-01-09T13:43:57.210Z,12.18
2023-01-09T13:49:03.951Z,15.80
2023-01-09T13:54:10.643Z,9.57
2023-01-09T13:59:28.787Z,11.95
2023-01-09T14:04:44.792Z,12.00
2023-01-09T14:09:53.922Z,10.15
2023-01-09T14:15:02.390Z,8.35
2023-01-09T14:20:24.807Z,4.72
2023-01-09T14:25:31.971Z,11.27
2023-01-09T14:30:38.100Z,7.63
2023-01-09T14:35:48.868Z,8.95
2023-01-09T14:40:57.282Z,5.35
2023-01-09T14:46:09.723Z,6.55
2023-01-09T14:51:18.221Z,8.43
2023-01-09T14:56:30.597Z,4.47
2023-01-09T15:01:37.280Z,6.18
2023-01-09T15:06:44.650Z,7.80
2023-01-09T15:11:48.733Z,8.20
2023-01-09T15:16:52.685Z,9.20
2023-01-09T15:22:02.967Z,6.60
2023-01-09T15:27:15.807Z,8.60
2023-01-09T15:32:24.709Z,11.65
2023-01-09T15:37:34.512Z,10.45
2023-01-09T15:42:59.270Z,14.95
2023-01-09T15:48:22.025Z,12.57
2023-01-09T15:53:28.711Z,8.73
2023-01-09T15:58:36.212Z,8.60
2023-01-09T16:03:40.179Z,7.40
2023-01-09T16:08:52.393Z,14.57
2023-01-09T16:13:58.439Z,14.60
2023-01-09T16:19:02.406Z,7.15
2023-01-09T16:29:38.500Z,19.67
2023-01-09T16:34:44.482Z,15.05
2023-01-09T16:40:27.118Z,11.68
2023-01-09T16:45:34.747Z,17.88
2023-01-09T16:50:38.338Z,15.88
2023-01-09T16:55:42.276Z,12.88
2023-01-09T17:00:48.233Z,14.07
2023-01-09T17:05:54.438Z,13.75
2023-01-09T17:10:59.045Z,24.58
2023-01-09T17:16:05.942Z,17.30
2023-01-09T17:21:16.825Z,13.95
2023-01-09T17:26:40.368Z,21.65
2023-01-09T17:31:45.539Z,12.70
2023-01-09T17:36:49.528Z,20.65
2023-01-09T17:41:53.927Z,17.25
2023-01-09T17:46:59.237Z,14.45
2023-01-09T17:52:03.110Z,20.75
2023-01-09T17:57:07.801Z,18.23
2023-01-09T18:02:18.217Z,15.95
2023-01-09T18:07:22.165Z,8.63
2023-01-09T18:12:25.893Z,13.57
2023-01-09T18:17:30.962Z,14.63
2023-01-09T18:22:34.965Z,14.13
2023-01-09T18:27:39.312Z,15.63
2023-01-09T18:32:44.342Z,19.92
2023-01-09T18:37:48.350Z,14.23
2023-01-09T18:42:52.683Z,9.30
2023-01-09T18:47:58.012Z,22.00
2023-01-09T18:53:01.699Z,13.40
2023-01-09T18:58:06.292Z,9.38
2023-01-09T19:03:15.328Z,14.57
2023-01-09T19:08:21.497Z,11.25
2023-01-09T19:13:25.945Z,14.18
2023-01-09T19:18:34.083Z,11.73
2023-01-09T19:23:37.627Z,11.63
2023-01-09T19:28:45.150Z,17.17
2023-01-09T19:33:50.274Z,11.77
2023-01-09T19:38:57.220Z,11.10
2023-01-09T19:44:01.307Z,12.88
2023-01-09T19:49:06.547Z,9.00
2023-01-09T19:54:11.620Z,18.83
2023-01-09T19:59:16.067Z,12.15
2023-01-09T20:04:21.155Z,16.88
2023-01-09T20:09:27.792Z,10.38
2023-01-09T20:14:31.458Z,10.88
2023-01-09T20:19:36.522Z,13.10
2023-01-09T20:24:40.371Z,13.55
2023-01-09T20:29:44.661Z,16.15
2023-01-09T20:34:49.852Z,18.80
2023-01-09T20:39:53.553Z,19.00
2023-01-09T20:44:57.337Z,13.82
2023-01-09T20:50:02.374Z,14.13
2023-01-09T20:55:06.616Z,10.30
2023-01-09T21:00:11.889Z,15.70
2023-01-09T21:05:17.306Z,7.75
2023-01-09T21:10:21.020Z,13.07
2023-01-09T21:15:24.980Z,13.30
2023-01-09T21:20:29.860Z,19.13
2023-01-09T21:25:33.638Z,19.20
2023-01-09T21:30:37.311Z,11.32
2023-01-09T21:35:42.665Z,13.50
2023-01-09T21:40:49.870Z,10.73
2023-01-09T21:46:11.794Z,18.38
2023-01-09T21:51:16.866Z,11.70
2023-01-09T21:56:20.846Z,11.57
2023-01-09T22:01:24.576Z,8.65
2023-01-09T22:06:29.797Z,13.90
2023-01-09T22:11:33.619Z,12.10
2023-01-09T22:16:37.487Z,8.85
2023-01-09T22:21:42.579Z,12.27
2023-01-09T22:26:46.268Z,26.10
2023-01-09T22:31:49.814Z,15.80
2023-01-09T22:36:54.850Z,13.48
2023-01-09T22:41:59.262Z,16.45
2023-01-09T22:47:02.726Z,12.15
2023-01-09T22:52:07.645Z,18.67
2023-01-09T22:57:11.145Z,13.75
2023-01-09T23:02:14.751Z,12.93
2023-01-09T23:07:19.733Z,11.35
2023-01-09T23:12:23.447Z,17.60
2023-01-09T23:17:27.194Z,20.75
2023-01-09T23:22:31.997Z,16.85
2023-01-09T23:27:35.546Z,10.10
2023-01-09T23:32:39.102Z,16.88
2023-01-09T23:37:44.210Z,18.10
2023-01-09T23:43:05.259Z,16.95
2023-01-09T23:48:11.134Z,15.10
2023-01-09T23:53:16.086Z,14.90
2023-01-09T23:58:19.556Z,13.38
